首页
METAR-TAF:

METAR-TAF

机场 :

Humberside, 英格兰

纬度: 53-35N, 经度: 000-21W, 海拔: 31米

当前天气观测

该预报发布于22分钟前的20:50 UTC
风速14节,风向北转西北
温度 11°C
湿度 82%
气压 1013 hPa
能见度10公里或以上

METAR: EGNJ 262050Z AUTO 34014KT 9999 SCT026/// BKN031/// OVC037/// 11/08 Q1013

时间: 22:12 (21:12 UTC)

预报

该预报发布于1小时和14分钟前的19:58 UTC
预报有效从26日的 21点(UTC)到 27日的 06点(UTC)
风速14节,风向西北
能见度10公里或以上
多云层高于2000英尺
几率 30% :
短暂存在
从 26日的 21点(UTC)到 27日的 06点(UTC)
风速17节,风向,有时为28节阵风

TAF: EGNJ 261958Z 2621/2706 32014KT 9999 BKN020 PROB30 TEMPO 2621/2706 35017G28KT

超过4000个机场的气象观测和天气预报(METAR&TAF报告)。

可查询的气象台以黄色和红色小点在地图上表示。

将鼠标移到小点上方,可查看气象台名称。

然后点击查看天气观测和预报。

如需切换地图:点击带黑十字的绿色按钮放大地图;点击带横线的绿色按钮缩小地图;或者点击绿色箭头查看邻近地区的地图。


METAR-TAF: